createdAt,value
2022-08-17T00:00:12.799Z,12.30
2022-08-17T00:03:01.078Z,12.32
2022-08-17T00:05:32.183Z,11.43
2022-08-17T00:08:00.366Z,11.07
2022-08-17T00:10:28.573Z,15.68
2022-08-17T00:12:59.104Z,13.88
2022-08-17T00:15:28.822Z,13.30
2022-08-17T00:17:56.782Z,12.65
2022-08-17T00:20:33.437Z,12.80
2022-08-17T00:23:04.353Z,10.50
2022-08-17T00:25:32.281Z,12.45
2022-08-17T00:28:00.406Z,14.40
2022-08-17T00:30:30.224Z,13.93
2022-08-17T00:33:19.093Z,15.73
2022-08-17T00:35:47.708Z,14.25
2022-08-17T00:38:16.125Z,14.30
2022-08-17T00:40:45.503Z,13.88
2022-08-17T00:43:17.624Z,15.40
2022-08-17T00:45:48.786Z,12.77
2022-08-17T00:48:28.845Z,14.93
2022-08-17T00:50:59.651Z,12.57
2022-08-17T00:53:28.474Z,12.18
2022-08-17T00:55:56.682Z,13.90
2022-08-17T00:58:30.386Z,15.88
2022-08-17T01:01:06.684Z,14.07
2022-08-17T01:03:37.557Z,11.40
2022-08-17T01:06:06.686Z,13.52
2022-08-17T01:08:35.537Z,11.45
2022-08-17T01:11:05.507Z,14.93
2022-08-17T01:13:40.749Z,11.85
2022-08-17T01:16:13.059Z,12.70
2022-08-17T01:18:42.281Z,11.50
2022-08-17T01:21:12.649Z,12.13
2022-08-17T01:23:42.534Z,15.10
2022-08-17T01:26:10.501Z,13.48
2022-08-17T01:28:54.857Z,12.32
2022-08-17T01:31:25.114Z,13.68
2022-08-17T01:33:53.250Z,14.57
2022-08-17T01:36:21.240Z,10.88
2022-08-17T01:38:50.588Z,10.65
2022-08-17T01:41:18.670Z,10.13
2022-08-17T01:43:48.950Z,10.63
2022-08-17T01:46:18.162Z,12.38
2022-08-17T01:48:47.733Z,10.70
2022-08-17T01:51:16.803Z,13.75
2022-08-17T01:53:47.588Z,10.13
2022-08-17T01:56:18.347Z,14.23
2022-08-17T01:58:47.126Z,11.43
2022-08-17T02:01:15.543Z,19.15
2022-08-17T02:03:59.095Z,16.00
2022-08-17T02:06:29.249Z,11.70
2022-08-17T02:09:02.566Z,11.25
2022-08-17T02:11:33.258Z,15.55
2022-08-17T02:14:02.868Z,10.07
2022-08-17T02:16:37.695Z,10.60
2022-08-17T02:19:07.302Z,14.52
2022-08-17T02:21:35.795Z,14.27
2022-08-17T02:24:05.826Z,14.98
2022-08-17T02:26:35.326Z,12.23
2022-08-17T02:29:04.281Z,15.32
2022-08-17T02:31:32.329Z,13.73
2022-08-17T02:34:04.784Z,13.38
2022-08-17T02:36:34.158Z,15.68
2022-08-17T02:39:02.441Z,13.52
2022-08-17T02:41:30.585Z,13.13
2022-08-17T02:44:00.027Z,13.40
2022-08-17T02:46:28.118Z,14.25
2022-08-17T02:48:56.056Z,16.85
2022-08-17T02:51:23.986Z,15.02
2022-08-17T02:53:52.049Z,14.75
2022-08-17T02:56:22.497Z,16.50
2022-08-17T02:58:50.601Z,14.98
2022-08-17T03:01:20.512Z,12.50
2022-08-17T03:03:48.417Z,12.88
2022-08-17T03:06:16.818Z,15.70
2022-08-17T03:08:44.829Z,14.25
2022-08-17T03:11:12.705Z,16.02
2022-08-17T03:13:40.621Z,15.68
2022-08-17T03:16:10.105Z,18.80
2022-08-17T03:18:39.441Z,15.35
2022-08-17T03:21:09.264Z,20.67
2022-08-17T03:23:41.341Z,16.98
2022-08-17T03:26:12.286Z,18.17
2022-08-17T03:28:43.730Z,22.95
2022-08-17T03:31:11.628Z,12.40
2022-08-17T03:33:41.381Z,14.23
2022-08-17T03:36:09.953Z,13.60
2022-08-17T03:38:39.388Z,14.63
2022-08-17T03:41:07.702Z,13.02
2022-08-17T03:43:35.845Z,12.88
2022-08-17T03:46:34.581Z,15.05
2022-08-17T03:49:22.529Z,19.55
2022-08-17T03:52:19.681Z,15.30
2022-08-17T03:55:05.162Z,12.57
2022-08-17T03:57:33.570Z,12.77
2022-08-17T04:00:01.646Z,16.38
2022-08-17T04:02:32.161Z,16.25
2022-08-17T04:05:01.851Z,18.92
2022-08-17T04:07:31.953Z,16.23
2022-08-17T04:10:00.326Z,22.02
2022-08-17T04:12:31.120Z,18.70
2022-08-17T04:14:59.408Z,94.05
2022-08-17T04:17:28.979Z,18.73
2022-08-17T04:19:56.994Z,21.15
2022-08-17T04:22:31.183Z,24.98
2022-08-17T04:25:01.887Z,21.60
2022-08-17T04:27:35.142Z,18.90
2022-08-17T04:30:03.437Z,21.58
2022-08-17T04:33:05.270Z,21.20
2022-08-17T04:35:23.124Z,17.35
2022-08-17T04:37:52.789Z,17.95
2022-08-17T04:40:39.133Z,22.85
2022-08-17T04:43:08.491Z,23.17
2022-08-17T04:45:40.414Z,19.50
2022-08-17T04:48:23.014Z,18.85
2022-08-17T04:53:24.997Z,24.95
2022-08-17T04:55:53.137Z,21.50
2022-08-17T04:58:21.528Z,25.20
2022-08-17T05:00:49.577Z,24.23
2022-08-17T05:03:17.537Z,26.88
2022-08-17T05:05:49.787Z,22.02
2022-08-17T05:08:19.029Z,25.45
2022-08-17T05:10:48.699Z,29.65
2022-08-17T05:13:17.702Z,27.73
2022-08-17T05:15:47.829Z,25.05
2022-08-17T05:18:17.616Z,30.70
2022-08-17T05:20:46.133Z,30.13
2022-08-17T05:23:16.061Z,27.60
2022-08-17T05:25:47.451Z,29.00
2022-08-17T05:28:17.908Z,28.35
2022-08-17T05:30:48.669Z,30.30
2022-08-17T05:33:19.663Z,28.63
2022-08-17T05:35:49.033Z,31.27
2022-08-17T05:38:18.033Z,33.28
2022-08-17T05:40:46.382Z,30.33
2022-08-17T05:43:15.673Z,29.52
2022-08-17T05:45:55.147Z,42.40
2022-08-17T05:48:39.765Z,32.20
2022-08-17T05:51:32.004Z,27.38
2022-08-17T05:54:08.234Z,31.00
2022-08-17T05:56:45.191Z,32.08
2022-08-17T05:59:21.989Z,33.47
2022-08-17T06:01:57.818Z,29.92
2022-08-17T06:04:28.461Z,37.53
2022-08-17T06:06:59.632Z,31.58
2022-08-17T06:09:35.585Z,30.75
2022-08-17T06:12:07.618Z,27.27
2022-08-17T06:14:48.674Z,30.23
2022-08-17T06:17:23.186Z,31.15
2022-08-17T06:19:52.484Z,28.27
2022-08-17T06:22:24.017Z,27.20
2022-08-17T06:24:54.326Z,32.80
2022-08-17T06:27:24.722Z,28.40
2022-08-17T06:29:55.135Z,25.42
2022-08-17T06:32:25.166Z,27.38
2022-08-17T06:34:53.816Z,25.00
2022-08-17T06:37:31.286Z,21.85
2022-08-17T06:40:03.869Z,20.10
2022-08-17T06:43:02.438Z,23.58
2022-08-17T06:45:32.161Z,17.85
2022-08-17T06:48:05.954Z,18.67
2022-08-17T06:50:37.009Z,16.95
2022-08-17T06:53:06.675Z,17.75
2022-08-17T06:55:38.420Z,16.05
2022-08-17T06:58:09.394Z,17.42
2022-08-17T07:00:46.303Z,17.02
2022-08-17T07:03:21.348Z,12.63
2022-08-17T07:05:52.881Z,14.65
2022-08-17T07:08:29.700Z,12.15
2022-08-17T07:11:02.538Z,14.25
2022-08-17T07:13:34.720Z,10.88
2022-08-17T07:16:08.694Z,13.00
2022-08-17T07:18:38.097Z,13.70
2022-08-17T07:21:14.155Z,8.18
2022-08-17T07:23:51.006Z,13.40
2022-08-17T07:26:18.998Z,13.70
2022-08-17T07:28:47.030Z,10.95
2022-08-17T07:31:17.623Z,13.13
2022-08-17T07:34:01.733Z,11.23
2022-08-17T07:36:33.992Z,8.18
2022-08-17T07:39:03.017Z,7.38
2022-08-17T07:41:57.896Z,7.65
2022-08-17T07:44:23.523Z,7.30
2022-08-17T07:47:10.091Z,12.25
2022-08-17T07:49:40.866Z,7.97
2022-08-17T07:52:47.537Z,8.68
2022-08-17T07:54:58.826Z,10.23
2022-08-17T07:57:35.468Z,10.80
2022-08-17T08:00:32.803Z,11.13
2022-08-17T08:03:03.577Z,7.28
2022-08-17T08:05:49.744Z,9.38
2022-08-17T08:08:29.528Z,7.07
2022-08-17T08:11:02.911Z,8.82
2022-08-17T08:13:33.503Z,9.60
2022-08-17T08:16:15.880Z,6.93
2022-08-17T08:18:54.051Z,15.07
2022-08-17T08:21:34.529Z,8.20
2022-08-17T08:24:07.060Z,12.95
2022-08-17T08:26:41.280Z,10.88
2022-08-17T08:29:13.160Z,5.38
2022-08-17T08:31:48.742Z,7.47
2022-08-17T08:35:00.513Z,6.28
2022-08-17T08:37:20.675Z,9.13
2022-08-17T08:39:58.914Z,9.15
2022-08-17T08:42:31.629Z,9.45
2022-08-17T08:45:05.615Z,13.00
2022-08-17T08:47:51.665Z,10.27
2022-08-17T08:50:37.290Z,10.80
2022-08-17T08:53:13.414Z,10.32
2022-08-17T08:55:48.794Z,8.15
2022-08-17T08:58:30.702Z,7.82
2022-08-17T09:01:16.994Z,7.10
2022-08-17T09:04:17.002Z,6.13
2022-08-17T09:06:56.761Z,5.30
2022-08-17T09:09:29.374Z,7.40
2022-08-17T09:14:45.263Z,9.13
2022-08-17T09:17:16.553Z,5.53
2022-08-17T09:19:49.512Z,13.20
2022-08-17T09:22:23.235Z,9.02
2022-08-17T09:24:57.296Z,12.23
2022-08-17T09:27:28.316Z,10.63
2022-08-17T09:29:58.475Z,8.02
2022-08-17T09:32:29.700Z,7.70
2022-08-17T09:35:01.538Z,7.20
2022-08-17T09:37:35.016Z,11.02
2022-08-17T09:40:10.721Z,14.70
2022-08-17T09:42:42.335Z,8.27
2022-08-17T09:45:17.512Z,7.50
2022-08-17T09:47:50.031Z,7.00
2022-08-17T09:51:03.609Z,6.18
2022-08-17T09:53:10.077Z,9.35
2022-08-17T09:55:51.353Z,8.23
2022-08-17T09:58:29.131Z,8.55
2022-08-17T10:01:02.232Z,9.40
2022-08-17T10:03:40.142Z,6.90
2022-08-17T10:06:13.379Z,11.63
2022-08-17T10:08:47.050Z,8.18
2022-08-17T10:11:22.469Z,12.50
2022-08-17T10:14:36.093Z,9.07
2022-08-17T10:17:02.138Z,6.57
2022-08-17T10:19:36.000Z,15.90
2022-08-17T10:22:34.524Z,10.80
2022-08-17T10:25:23.711Z,9.18
2022-08-17T10:27:56.705Z,7.85
2022-08-17T10:30:28.023Z,10.93
2022-08-17T10:33:00.010Z,9.60
2022-08-17T10:35:34.244Z,17.75
2022-08-17T10:38:28.568Z,10.77
2022-08-17T10:40:59.200Z,10.38
2022-08-17T10:43:35.305Z,9.38
2022-08-17T10:46:09.259Z,12.75
2022-08-17T10:49:24.346Z,10.30
2022-08-17T10:51:54.607Z,12.45
2022-08-17T10:54:37.507Z,9.23
2022-08-17T10:57:24.587Z,10.07
2022-08-17T10:59:54.347Z,10.60
2022-08-17T11:02:28.234Z,16.15
2022-08-17T11:05:04.959Z,14.07
2022-08-17T11:07:51.038Z,15.93
2022-08-17T11:10:26.939Z,12.15
2022-08-17T11:13:01.645Z,13.82
2022-08-17T11:15:38.265Z,15.27
2022-08-17T11:18:16.892Z,12.90
2022-08-17T11:20:57.158Z,12.50
2022-08-17T11:23:31.022Z,14.55
2022-08-17T11:26:04.059Z,14.18
2022-08-17T11:28:36.037Z,11.63
2022-08-17T11:31:09.105Z,19.00
2022-08-17T11:33:52.630Z,17.08
2022-08-17T11:36:25.977Z,12.65
2022-08-17T11:38:58.178Z,16.67
2022-08-17T11:41:30.482Z,17.92
2022-08-17T11:44:04.317Z,17.38
2022-08-17T11:46:51.673Z,13.88
2022-08-17T11:49:39.313Z,16.45
2022-08-17T11:52:15.770Z,14.02
2022-08-17T11:54:48.622Z,14.10
2022-08-17T11:57:35.060Z,16.20
2022-08-17T12:00:10.641Z,13.23
2022-08-17T12:02:47.757Z,11.70
2022-08-17T12:05:40.261Z,11.40
2022-08-17T12:08:12.138Z,10.77
2022-08-17T12:10:49.946Z,13.63
2022-08-17T12:13:20.122Z,10.68
2022-08-17T12:15:49.863Z,17.58
2022-08-17T12:18:23.347Z,14.85
2022-08-17T12:21:00.849Z,13.27
2022-08-17T12:23:50.308Z,13.85
2022-08-17T12:26:19.660Z,15.23
2022-08-17T12:28:49.093Z,17.88
2022-08-17T12:31:19.113Z,17.30
2022-08-17T12:33:50.119Z,19.95
2022-08-17T12:36:20.047Z,16.50
2022-08-17T12:38:51.506Z,17.42
2022-08-17T12:41:30.941Z,14.07
2022-08-17T12:44:01.797Z,11.45
2022-08-17T12:46:30.395Z,12.25
2022-08-17T12:49:13.778Z,13.35
2022-08-17T12:51:44.313Z,11.45
2022-08-17T12:54:22.769Z,14.73
2022-08-17T12:56:50.685Z,9.70
2022-08-17T12:59:30.184Z,8.43
2022-08-17T13:01:58.980Z,10.30
2022-08-17T13:04:29.519Z,10.60
2022-08-17T13:07:00.326Z,10.27
2022-08-17T13:09:35.246Z,13.65
2022-08-17T13:12:08.230Z,9.98
2022-08-17T13:14:36.560Z,10.40
2022-08-17T13:17:09.892Z,8.65
2022-08-17T13:19:48.751Z,8.98
2022-08-17T13:22:16.858Z,7.85
2022-08-17T13:24:53.361Z,8.48
2022-08-17T13:27:22.438Z,11.20
2022-08-17T13:29:53.957Z,12.88
2022-08-17T13:32:23.305Z,9.60
2022-08-17T13:35:12.454Z,8.40
2022-08-17T13:38:02.701Z,8.65
2022-08-17T13:40:32.602Z,10.88
2022-08-17T13:43:03.447Z,8.23
2022-08-17T13:45:38.973Z,9.13
2022-08-17T13:48:14.059Z,9.10
2022-08-17T13:50:45.280Z,10.13
2022-08-17T13:53:17.676Z,12.93
2022-08-17T13:55:48.949Z,10.20
2022-08-17T13:58:20.967Z,9.35
2022-08-17T14:00:50.802Z,11.43
2022-08-17T14:03:19.412Z,15.07
2022-08-17T14:05:50.251Z,15.43
2022-08-17T14:08:19.119Z,13.52
2022-08-17T14:10:50.755Z,9.25
2022-08-17T14:13:18.893Z,13.40
2022-08-17T14:15:56.125Z,10.45
2022-08-17T14:18:35.649Z,10.27
2022-08-17T14:21:14.565Z,11.02
2022-08-17T14:23:54.558Z,7.80
2022-08-17T14:26:23.238Z,9.52
2022-08-17T14:28:56.339Z,7.05
2022-08-17T14:31:25.117Z,10.18
2022-08-17T14:33:53.360Z,8.95
2022-08-17T14:36:22.740Z,10.48
2022-08-17T14:38:50.645Z,9.93
2022-08-17T14:41:22.035Z,12.07
2022-08-17T14:43:50.602Z,9.93
2022-08-17T14:46:18.538Z,9.70
2022-08-17T14:48:47.120Z,9.95
2022-08-17T14:51:15.022Z,11.82
2022-08-17T14:53:45.946Z,9.18
2022-08-17T14:56:14.026Z,12.90
2022-08-17T14:58:42.649Z,12.20
2022-08-17T15:01:11.084Z,13.05
2022-08-17T15:03:41.063Z,12.18
2022-08-17T15:06:09.666Z,9.55
2022-08-17T15:08:37.678Z,9.35
2022-08-17T15:11:07.237Z,9.48
2022-08-17T15:13:52.388Z,10.15
2022-08-17T15:16:21.061Z,9.60
2022-08-17T15:18:49.212Z,15.48
2022-08-17T15:21:18.294Z,11.38
2022-08-17T15:23:47.955Z,14.27
2022-08-17T15:26:18.514Z,15.50
2022-08-17T15:28:52.200Z,8.43
2022-08-17T15:31:32.355Z,9.48
2022-08-17T15:34:00.676Z,10.13
2022-08-17T15:36:28.714Z,16.25
2022-08-17T15:38:58.911Z,9.52
2022-08-17T15:41:35.925Z,10.15
2022-08-17T15:44:03.985Z,12.05
2022-08-17T15:46:33.844Z,9.75
2022-08-17T15:49:03.401Z,12.10
2022-08-17T15:51:32.648Z,9.32
2022-08-17T15:54:04.479Z,10.35
2022-08-17T15:56:48.888Z,8.23
2022-08-17T15:59:17.032Z,13.57
2022-08-17T16:03:15.145Z,19.33
2022-08-17T16:04:33.889Z,17.63
2022-08-17T16:07:01.865Z,10.57
2022-08-17T16:09:29.853Z,12.23
2022-08-17T16:11:59.361Z,8.93
2022-08-17T16:14:34.013Z,12.65
2022-08-17T16:17:03.412Z,15.57
2022-08-17T16:19:31.550Z,19.50
2022-08-17T16:21:59.568Z,10.70
2022-08-17T16:24:27.762Z,20.40
2022-08-17T16:26:56.278Z,10.50
2022-08-17T16:29:25.945Z,13.70
2022-08-17T16:31:54.184Z,8.25
2022-08-17T16:34:22.098Z,12.48
2022-08-17T16:36:55.636Z,12.63
2022-08-17T16:39:25.498Z,11.63
2022-08-17T16:41:53.509Z,13.38
2022-08-17T16:44:22.129Z,12.50
2022-08-17T16:46:51.736Z,10.05
2022-08-17T16:49:35.169Z,16.88
2022-08-17T16:52:07.366Z,11.00
2022-08-17T16:54:36.037Z,12.82
2022-08-17T16:57:05.440Z,14.02
2022-08-17T16:59:42.588Z,16.98
2022-08-17T17:02:15.849Z,12.65
2022-08-17T17:04:46.968Z,9.95
2022-08-17T17:07:25.884Z,14.57
2022-08-17T17:09:55.786Z,16.85
2022-08-17T17:13:01.076Z,18.02
2022-08-17T17:15:13.068Z,29.65
2022-08-17T17:17:44.045Z,30.90
2022-08-17T17:20:15.588Z,29.27
2022-08-17T17:22:48.090Z,20.38
2022-08-17T17:25:19.088Z,22.80
2022-08-17T17:27:51.597Z,25.30
2022-08-17T17:30:22.753Z,20.67
2022-08-17T17:32:57.765Z,12.68
2022-08-17T17:35:27.544Z,22.42
2022-08-17T17:37:57.616Z,12.30
2022-08-17T17:40:26.775Z,18.45
2022-08-17T17:42:56.474Z,16.15
2022-08-17T17:45:26.125Z,18.27
2022-08-17T17:47:56.738Z,16.50
2022-08-17T17:50:29.308Z,27.75
2022-08-17T17:53:00.614Z,22.38
2022-08-17T17:55:36.882Z,19.17
2022-08-17T17:58:10.469Z,14.65
2022-08-17T18:00:40.116Z,17.92
2022-08-17T18:03:22.013Z,12.70
2022-08-17T18:05:55.829Z,17.85
2022-08-17T18:08:36.355Z,15.40
2022-08-17T18:11:14.685Z,10.27
2022-08-17T18:13:58.840Z,10.82
2022-08-17T18:16:28.601Z,13.15
2022-08-17T18:19:01.493Z,17.53
2022-08-17T18:21:33.595Z,18.92
2022-08-17T18:24:02.531Z,15.95
2022-08-17T18:26:38.151Z,14.18
2022-08-17T18:29:14.265Z,12.55
2022-08-17T18:31:42.381Z,11.32
2022-08-17T18:34:45.763Z,12.77
2022-08-17T18:37:11.758Z,14.15
2022-08-17T18:39:44.297Z,14.70
2022-08-17T18:42:30.808Z,17.80
2022-08-17T18:44:58.795Z,19.40
2022-08-17T18:47:27.600Z,17.23
2022-08-17T18:49:58.024Z,17.20
2022-08-17T18:52:28.205Z,17.80
2022-08-17T18:55:01.968Z,20.98
2022-08-17T18:57:34.804Z,15.70
2022-08-17T19:00:03.219Z,24.88
2022-08-17T19:02:45.083Z,19.15
2022-08-17T19:05:28.267Z,20.75
2022-08-17T19:08:14.870Z,20.15
2022-08-17T19:10:46.808Z,14.68
2022-08-17T19:13:23.973Z,15.88
2022-08-17T19:16:13.027Z,21.40
2022-08-17T19:18:49.064Z,15.63
2022-08-17T19:21:22.809Z,15.00
2022-08-17T19:23:54.588Z,10.13
2022-08-17T19:26:54.333Z,11.40
2022-08-17T19:29:16.314Z,11.98
2022-08-17T19:31:47.704Z,16.60
2022-08-17T19:34:17.297Z,18.17
2022-08-17T19:37:07.051Z,14.38
2022-08-17T19:39:38.237Z,12.73
2022-08-17T19:42:21.726Z,17.55
2022-08-17T19:44:56.692Z,13.55
2022-08-17T19:47:53.756Z,15.73
2022-08-17T19:50:23.974Z,22.95
2022-08-17T19:52:55.888Z,15.20
2022-08-17T19:55:30.502Z,15.70
2022-08-17T19:58:03.649Z,23.88
2022-08-17T20:00:36.323Z,21.98
2022-08-17T20:03:08.271Z,16.55
2022-08-17T20:06:08.548Z,15.38
2022-08-17T20:08:33.130Z,15.60
2022-08-17T20:11:03.822Z,14.15
2022-08-17T20:13:35.015Z,16.25
2022-08-17T20:16:03.562Z,14.05
2022-08-17T20:18:33.293Z,16.35
2022-08-17T20:21:03.073Z,17.85
2022-08-17T20:23:36.889Z,15.98
2022-08-17T20:26:09.434Z,18.20
2022-08-17T20:28:39.117Z,13.60
2022-08-17T20:31:22.051Z,14.52
2022-08-17T20:33:49.966Z,15.43
2022-08-17T20:36:19.398Z,14.90
2022-08-17T20:38:50.530Z,14.85
2022-08-17T20:41:20.958Z,14.45
2022-08-17T20:44:03.148Z,13.57
2022-08-17T20:46:42.566Z,14.68
2022-08-17T20:49:16.634Z,18.83
2022-08-17T20:52:00.801Z,21.20
2022-08-17T20:54:42.999Z,19.50
2022-08-17T20:57:19.453Z,13.80
2022-08-17T21:00:17.800Z,14.82
2022-08-17T21:02:46.779Z,15.02
2022-08-17T21:05:36.975Z,14.85
2022-08-17T21:08:17.015Z,17.45
2022-08-17T21:10:47.273Z,14.20
2022-08-17T21:13:32.154Z,13.93
2022-08-17T21:16:03.122Z,13.70
2022-08-17T21:18:38.749Z,17.77
2022-08-17T21:21:17.623Z,14.63
2022-08-17T21:24:03.510Z,17.42
2022-08-17T21:26:35.748Z,14.07
2022-08-17T21:29:31.731Z,14.88
2022-08-17T21:32:24.261Z,12.80
2022-08-17T21:35:11.147Z,15.00
2022-08-17T21:37:42.037Z,13.25
2022-08-17T21:40:22.657Z,18.65
2022-08-17T21:42:55.890Z,10.75
2022-08-17T21:45:27.740Z,13.90
2022-08-17T21:48:11.338Z,14.15
2022-08-17T21:50:41.770Z,11.88
2022-08-17T21:53:12.970Z,12.85
2022-08-17T21:55:42.185Z,13.35
2022-08-17T21:58:24.635Z,12.98
2022-08-17T22:01:07.441Z,19.20
2022-08-17T22:03:35.566Z,18.80
2022-08-17T22:06:18.837Z,13.88
2022-08-17T22:08:58.848Z,17.90
2022-08-17T22:11:27.035Z,17.13
2022-08-17T22:14:02.291Z,13.60
2022-08-17T22:16:34.065Z,16.27
2022-08-17T22:19:02.089Z,14.32
2022-08-17T22:21:30.040Z,15.90
2022-08-17T22:24:04.525Z,19.40
2022-08-17T22:26:51.087Z,15.50
2022-08-17T22:29:33.845Z,14.40
2022-08-17T22:32:03.139Z,14.63
2022-08-17T22:34:31.115Z,11.38
2022-08-17T22:37:14.052Z,13.15
2022-08-17T22:39:42.156Z,12.43
2022-08-17T22:42:15.006Z,14.85
2022-08-17T22:44:48.128Z,13.25
2022-08-17T22:47:32.453Z,11.15
2022-08-17T22:50:01.485Z,12.52
2022-08-17T22:52:33.689Z,12.70
2022-08-17T22:55:20.363Z,12.53
2022-08-17T22:58:07.994Z,11.43
2022-08-17T23:00:38.590Z,15.52
2022-08-17T23:03:12.800Z,11.98
2022-08-17T23:05:43.005Z,17.30
2022-08-17T23:08:12.994Z,15.05
2022-08-17T23:10:42.131Z,14.63
2022-08-17T23:13:12.044Z,13.60
2022-08-17T23:15:40.852Z,17.52
2022-08-17T23:18:10.289Z,16.40
2022-08-17T23:20:40.172Z,12.00
2022-08-17T23:23:09.081Z,12.27
2022-08-17T23:25:37.461Z,16.40
2022-08-17T23:28:06.637Z,16.50
2022-08-17T23:30:36.830Z,13.60
2022-08-17T23:33:05.568Z,13.65
2022-08-17T23:35:38.904Z,17.20
2022-08-17T23:38:09.185Z,11.55
2022-08-17T23:40:39.587Z,16.83
2022-08-17T23:43:23.551Z,12.10
2022-08-17T23:45:53.281Z,14.27
2022-08-17T23:48:28.533Z,11.93
2022-08-17T23:51:09.309Z,12.82
2022-08-17T23:56:09.407Z,13.32
2022-08-17T23:58:39.507Z,12.63
